Terminal Aerodrome Forecast
Issued by NWS Lake Charles, LA

Home | Current Version | Previous Version | Text Only | Print | Product List | Glossary On
Versions: 1 2 3 4 5 6 7 8 9 10 11 12 13 14 15 16
000
FTUS44 KLCH 291100
TAFARA
TAF
KARA 291137Z 2912/3012 16003KT 2SM BR SKC
      TEMPO 2912/2914 1/2SM FG OVC002
     FM291500 21007KT P6SM SCT250
     FM300500 34012KT P6SM BKN050=

USA.gov is the U.S. government's official web portal to all federal, state and local government web resources and services.